Time;durP1;ratioP1;P1;durP2;ratioP2;P2;SDS_P1;SDS_P2;PMS_P1;PMS_P2;Temp;Humidity;BMP_temperature;BMP_pressure;BME280_temperature;BME280_humidity;BME280_pressure;Samples;Min_cycle;Max_cycle;Signal;HPM_P1;HPM_P2
2021/04/21 00:00:20;;;;;;;2.30;2.20;;;;;;;14.18;37.03;100470.84;5073618;28;20089;-69
2021/04/21 00:02:50;;;;;;;1.90;1.80;;;;;;;13.86;37.75;100471.84;5085843;28;20521;-70
2021/04/21 00:05:19;;;;;;;5.35;2.38;;;;;;;14.03;37.50;100475.22;5079314;28;20064;-71
2021/04/21 00:07:47;;;;;;;4.25;2.53;;;;;;;14.00;37.55;100463.13;5080298;28;20044;-70
2021/04/21 00:10:14;;;;;;;2.83;2.50;;;;;;;14.01;37.74;100477.06;5092121;28;20540;-70
2021/04/21 00:12:42;;;;;;;2.92;2.45;;;;;;;13.88;37.51;100477.00;5091092;28;20055;-69
2021/04/21 00:15:13;;;;;;;6.80;2.90;;;;;;;13.79;38.03;100475.75;5079027;28;20040;-70
2021/04/21 00:17:45;;;;;;;3.67;2.67;;;;;;;13.70;38.08;100478.94;5087485;28;20079;-70
2021/04/21 00:20:13;;;;;;;6.30;3.25;;;;;;;13.77;38.64;100476.78;5083967;28;20040;-70
2021/04/21 00:22:42;;;;;;;3.30;2.83;;;;;;;13.62;38.12;100482.00;5077705;28;20490;-69
2021/04/21 00:25:11;;;;;;;7.47;3.35;;;;;;;13.62;38.40;100486.38;5091594;28;20040;-69
2021/04/21 00:27:38;;;;;;;7.38;4.20;;;;;;;13.44;39.68;100496.19;5094640;28;20498;-70
2021/04/21 00:30:08;;;;;;;4.22;3.83;;;;;;;12.20;44.62;100517.84;5095534;28;20075;-69
2021/04/21 00:32:42;;;;;;;6.57;5.95;;;;;;;12.21;45.77;100509.06;5078596;28;20135;-69
2021/04/21 00:35:12;;;;;;;7.28;5.82;;;;;;;12.10;46.67;100519.25;5095502;28;20064;-72
2021/04/21 00:37:39;;;;;;;6.43;5.82;;;;;;;11.93;47.30;100513.13;5081367;28;20467;-71
2021/04/21 00:40:10;;;;;;;9.57;6.10;;;;;;;12.18;47.17;100514.44;5087802;28;20123;-70
2021/04/21 00:42:52;;;;;;;6.70;6.00;;;;;;;12.26;46.94;100528.81;5074489;28;20048;-69
2021/04/21 00:45:19;;;;;;;9.60;6.85;;;;;;;12.17;47.04;100531.91;5085188;28;20101;-69
2021/04/21 00:47:52;;;;;;;7.80;5.95;;;;;;;12.25;46.92;100532.34;5095133;28;20039;-69
2021/04/21 00:50:51;;;;;;;7.18;6.30;;;;;;;12.26;47.47;100538.44;5093389;28;20162;-68
2021/04/21 00:53:32;;;;;;;6.60;5.90;;;;;;;12.30;47.18;100545.16;5092626;28;20051;-69
2021/04/21 00:56:15;;;;;;;9.82;6.55;;;;;;;12.40;47.14;100535.06;5093613;28;20452;-68
2021/04/21 00:59:14;;;;;;;8.20;5.97;;;;;;;12.34;47.18;100531.00;5082020;28;20032;-69
2021/04/21 01:01:41;;;;;;;7.45;6.07;;;;;;;12.45;46.65;100535.66;5094633;28;20048;-69
2021/04/21 01:04:12;;;;;;;8.80;7.65;;;;;;;12.36;47.30;100534.41;5092942;28;20048;-69
2021/04/21 01:06:46;;;;;;;6.20;5.63;;;;;;;12.32;47.31;100527.66;5087133;28;20067;-69
2021/04/21 01:09:17;;;;;;;8.85;6.13;;;;;;;12.30;46.99;100521.63;5093556;28;20130;-69
2021/04/21 01:11:49;;;;;;;7.50;6.78;;;;;;;12.32;47.78;100533.72;5091734;28;20082;-68
2021/04/21 01:14:24;;;;;;;9.48;6.80;;;;;;;12.33;47.17;100535.41;5094224;28;20040;-68
2021/04/21 01:16:58;;;;;;;7.60;5.65;;;;;;;12.38;47.23;100532.53;5093146;28;20051;-69
2021/04/21 01:19:36;;;;;;;22.95;6.80;;;;;;;12.17;47.75;100538.91;5094223;28;20115;-69
2021/04/21 01:22:13;;;;;;;6.28;5.68;;;;;;;12.26;47.54;100541.03;5093784;28;20055;-68
2021/04/21 01:25:05;;;;;;;6.95;6.20;;;;;;;12.24;47.69;100533.25;5093992;28;20071;-69
2021/04/21 01:27:52;;;;;;;8.00;6.53;;;;;;;11.99;48.24;100533.69;5094204;28;20123;-71
2021/04/21 01:30:22;;;;;;;7.00;6.30;;;;;;;12.14;48.58;100531.19;5093878;28;20040;-68
2021/04/21 01:32:51;;;;;;;7.93;6.20;;;;;;;12.16;48.06;100535.44;5092614;28;20491;-69
2021/04/21 01:35:21;;;;;;;6.10;5.50;;;;;;;11.94;48.72;100540.94;5086964;28;20085;-68
2021/04/21 01:37:54;;;;;;;8.98;6.75;;;;;;;11.86;49.03;100539.63;5093050;28;20090;-69
2021/04/21 01:40:31;;;;;;;6.35;5.72;;;;;;;11.96;49.43;100536.47;5093993;28;20101;-69
2021/04/21 01:43:07;;;;;;;14.52;7.65;;;;;;;11.92;48.89;100532.31;5090086;28;20102;-68
2021/04/21 01:45:34;;;;;;;5.93;5.20;;;;;;;11.92;49.15;100531.47;5094091;28;20052;-67
2021/04/21 01:48:06;;;;;;;10.95;7.10;;;;;;;11.96;48.19;100533.00;5093835;28;20040;-67
2021/04/21 01:50:33;;;;;;;6.78;5.60;;;;;;;11.83;49.05;100532.78;5093262;28;20542;-69
2021/04/21 01:53:08;;;;;;;9.43;6.15;;;;;;;12.00;48.42;100534.53;5092946;28;20402;-69
2021/04/21 01:56:09;;;;;;;6.70;6.00;;;;;;;12.10;47.93;100537.53;5087423;28;20071;-68
2021/04/21 01:58:35;;;;;;;7.45;5.90;;;;;;;11.74;48.59;100528.84;5082415;28;20074;-69
2021/04/21 02:01:10;;;;;;;6.78;6.00;;;;;;;12.03;48.13;100537.81;5093274;28;20521;-69
2021/04/21 02:03:41;;;;;;;7.88;5.82;;;;;;;12.04;47.91;100536.94;5093018;28;20036;-67
2021/04/21 02:06:48;;;;;;;6.18;5.57;;;;;;;11.94;48.06;100540.09;5081974;28;20041;-66
2021/04/21 02:09:47;;;;;;;7.90;6.00;;;;;;;11.87;48.56;100539.53;5082308;28;20109;-68
2021/04/21 02:12:19;;;;;;;6.45;5.85;;;;;;;12.00;48.02;100538.00;5071289;28;20139;-68
2021/04/21 02:15:06;;;;;;;6.28;5.68;;;;;;;12.15;47.44;100525.91;5085164;28;20049;-68
2021/04/21 02:17:43;;;;;;;8.63;5.95;;;;;;;12.01;47.35;100539.69;5081048;28;20040;-69
2021/04/21 02:20:24;;;;;;;8.05;6.35;;;;;;;11.84;48.26;100537.09;5087286;28;20550;-69
2021/04/21 02:23:00;;;;;;;7.13;6.05;;;;;;;11.70;48.25;100527.28;5093278;28;20052;-68
2021/04/21 02:26:11;;;;;;;6.40;5.78;;;;;;;11.65;48.38;100539.72;5089430;28;20372;-70
2021/04/21 02:29:09;;;;;;;7.88;6.60;;;;;;;11.50;49.48;100530.03;5079097;28;20044;-70
2021/04/21 02:31:41;;;;;;;9.35;6.25;;;;;;;11.58;49.58;100529.69;5092452;28;20032;-70
2021/04/21 02:34:36;;;;;;;10.70;6.40;;;;;;;11.58;49.67;100535.75;5092004;28;20048;-71
2021/04/21 02:37:16;;;;;;;7.25;5.70;;;;;;;11.38;49.86;100536.72;5058446;28;20490;-70
2021/04/21 02:39:47;;;;;;;7.03;5.55;;;;;;;11.59;49.33;100541.81;5092806;28;20395;-70
2021/04/21 02:42:14;;;;;;;8.07;5.70;;;;;;;11.37;50.16;100536.81;5079541;28;20039;-70
2021/04/21 02:45:00;;;;;;;6.93;6.22;;;;;;;11.48;50.35;100530.13;5092211;28;20109;-70
2021/04/21 02:47:38;;;;;;;6.80;6.00;;;;;;;11.55;50.50;100534.13;5080781;28;20119;-70
2021/04/21 02:50:08;;;;;;;6.30;5.70;;;;;;;11.44;50.77;100533.81;5091229;28;20064;-70
2021/04/21 02:52:41;;;;;;;6.13;5.40;;;;;;;11.29;50.50;100531.94;5092868;28;20075;-70
2021/04/21 02:55:31;;;;;;;10.63;5.50;;;;;;;11.35;50.50;100534.28;5091924;28;20082;-70
2021/04/21 02:58:05;;;;;;;6.65;5.72;;;;;;;11.32;50.59;100530.97;5092587;28;20474;-70
2021/04/21 03:00:47;;;;;;;7.93;5.47;;;;;;;11.26;50.29;100537.31;5092547;28;20454;-69
2021/04/21 03:03:39;;;;;;;6.05;5.40;;;;;;;11.24;51.45;100537.41;5092705;28;20101;-69
2021/04/21 03:06:14;;;;;;;7.10;6.32;;;;;;;11.10;52.22;100538.97;5058997;28;20044;-70
2021/04/21 03:08:46;;;;;;;6.97;6.27;;;;;;;11.24;51.15;100536.56;5075692;28;20127;-70
2021/04/21 03:11:26;;;;;;;7.80;6.05;;;;;;;11.00;51.92;100534.19;5083144;28;20075;-70
2021/04/21 03:14:04;;;;;;;8.82;5.47;;;;;;;11.01;51.47;100527.19;5073162;28;20044;-70
2021/04/21 03:16:38;;;;;;;6.35;5.43;;;;;;;11.09;51.42;100532.91;5079473;28;20044;-70
2021/04/21 03:19:07;;;;;;;7.75;5.90;;;;;;;11.12;52.08;100524.91;5092592;28;20052;-70
2021/04/21 03:21:40;;;;;;;8.77;6.32;;;;;;;11.06;51.64;100532.19;5091739;28;20417;-70
2021/04/21 03:24:14;;;;;;;8.85;6.85;;;;;;;11.18;51.01;100527.22;5092300;28;20101;-70
2021/04/21 03:26:44;;;;;;;7.82;6.40;;;;;;;11.11;51.56;100527.63;5078349;28;20056;-70
2021/04/21 03:29:28;;;;;;;8.38;6.88;;;;;;;11.10;51.57;100521.56;5092479;28;20073;-70
2021/04/21 03:31:59;;;;;;;7.70;6.63;;;;;;;11.00;51.33;100523.75;5090573;28;20556;-69
2021/04/21 03:34:28;;;;;;;6.72;5.40;;;;;;;11.19;50.51;100522.88;5080273;28;20043;-71
2021/04/21 03:36:55;;;;;;;5.38;4.88;;;;;;;10.92;51.70;100528.50;5090925;28;20098;-71
2021/04/21 03:39:21;;;;;;;8.77;5.90;;;;;;;11.00;51.36;100518.53;5092110;28;20547;-71
2021/04/21 03:41:49;;;;;;;6.93;6.22;;;;;;;10.99;52.02;100519.44;5090037;28;20036;-71
2021/04/21 03:44:16;;;;;;;6.85;6.00;;;;;;;11.00;52.01;100515.91;5080575;28;20044;-71
2021/04/21 03:46:43;;;;;;;6.93;6.07;;;;;;;11.05;51.54;100517.47;5091481;28;20557;-71
2021/04/21 03:49:10;;;;;;;7.65;5.78;;;;;;;11.04;51.41;100510.56;5091803;28;20044;-71
2021/04/21 03:51:37;;;;;;;6.95;5.97;;;;;;;11.18;50.84;100515.94;5092494;28;20040;-72
2021/04/21 03:54:05;;;;;;;7.85;6.35;;;;;;;11.14;51.68;100514.44;5091603;28;20140;-72
2021/04/21 03:56:35;;;;;;;7.82;6.57;;;;;;;10.93;52.04;100511.06;5090102;28;20127;-71
2021/04/21 03:59:02;;;;;;;6.63;5.50;;;;;;;10.92;52.35;100520.66;5091849;28;20115;-70
2021/04/21 04:01:29;;;;;;;8.70;5.25;;;;;;;10.70;52.51;100515.59;5082712;28;20049;-71
2021/04/21 04:04:01;;;;;;;6.75;4.78;;;;;;;10.72;52.72;100510.31;5074942;28;20471;-71
2021/04/21 04:06:37;;;;;;;6.82;6.10;;;;;;;10.91;51.80;100513.75;5073290;28;20633;-72
2021/04/21 04:09:05;;;;;;;8.75;5.63;;;;;;;10.98;52.45;100519.53;5074384;28;20087;-71
2021/04/21 04:11:40;;;;;;;7.82;5.90;;;;;;;10.80;52.71;100517.78;5073801;28;20094;-71
2021/04/21 04:14:19;;;;;;;8.80;6.10;;;;;;;10.82;52.34;100518.56;5075097;28;20373;-71
2021/04/21 04:16:48;;;;;;;7.95;6.57;;;;;;;10.94;52.26;100518.81;5072790;28;20052;-71
2021/04/21 04:19:14;;;;;;;8.63;5.90;;;;;;;10.73;53.76;100519.81;5073855;28;20032;-70
2021/04/21 04:21:45;;;;;;;7.28;6.10;;;;;;;10.75;53.02;100523.19;5072956;28;20102;-69
2021/04/21 04:24:14;;;;;;;12.75;5.88;;;;;;;10.68;52.85;100521.78;5074187;28;20079;-69
2021/04/21 04:26:42;;;;;;;11.60;6.50;;;;;;;10.66;53.06;100521.03;5077460;28;20094;-68
2021/04/21 04:29:10;;;;;;;6.50;5.90;;;;;;;10.65;52.78;100527.13;5074744;28;20399;-69
2021/04/21 04:31:39;;;;;;;6.68;5.38;;;;;;;10.85;50.77;100524.47;5074380;28;20048;-68
2021/04/21 04:34:07;;;;;;;6.20;4.90;;;;;;;10.82;50.33;100527.22;5075644;28;20074;-69
2021/04/21 04:36:40;;;;;;;6.63;5.00;;;;;;;10.78;51.06;100527.44;5074097;28;20080;-69
2021/04/21 04:39:08;;;;;;;7.75;4.75;;;;;;;11.14;48.98;100530.09;5073458;28;20040;-68
2021/04/21 04:41:39;;;;;;;7.35;4.35;;;;;;;11.31;47.83;100529.28;5071479;28;20109;-69
2021/04/21 04:44:07;;;;;;;9.98;4.22;;;;;;;11.24;46.74;100526.97;5073358;28;20499;-69
2021/04/21 04:46:43;;;;;;;7.78;3.30;;;;;;;11.40;45.76;100534.03;5079418;28;20122;-69
2021/04/21 04:49:15;;;;;;;3.88;3.22;;;;;;;11.42;45.46;100532.19;5094593;28;20379;-68
2021/04/21 04:51:46;;;;;;;3.50;3.20;;;;;;;11.45;45.50;100532.91;5094131;28;20126;-69
2021/04/21 04:54:15;;;;;;;6.85;3.55;;;;;;;11.67;45.04;100531.84;5095357;28;20051;-69
2021/04/21 04:56:44;;;;;;;4.30;3.53;;;;;;;11.64;45.08;100521.53;5095330;28;20444;-68
2021/04/21 04:59:13;;;;;;;4.78;4.07;;;;;;;12.02;44.06;100541.38;5093125;28;20520;-69
2021/04/21 05:01:57;;;;;;;8.70;4.50;;;;;;;12.23;43.30;100535.97;5080196;28;20040;-69
2021/04/21 05:04:40;;;;;;;4.95;3.60;;;;;;;12.40;42.58;100532.44;5090299;28;20040;-71
2021/04/21 05:07:08;;;;;;;6.72;3.70;;;;;;;12.16;43.07;100547.66;5094476;28;20101;-71
2021/04/21 05:09:41;;;;;;;5.72;3.63;;;;;;;12.13;44.90;100545.19;5093071;28;20068;-69
2021/04/21 05:12:13;;;;;;;5.85;3.75;;;;;;;12.34;44.21;100546.69;5087846;28;20429;-69
2021/04/21 05:14:42;;;;;;;5.45;4.05;;;;;;;12.81;44.07;100552.00;5080457;28;20131;-68
2021/04/21 05:17:50;;;;;;;8.05;4.03;;;;;;;13.09;44.40;100551.31;5089288;28;20044;-70
2021/04/21 05:20:41;;;;;;;9.23;4.80;;;;;;;13.06;44.16;100554.13;5073040;28;20090;-69
2021/04/21 05:23:49;;;;;;;6.57;3.90;;;;;;;13.44;43.98;100559.03;5076849;28;20040;-68
2021/04/21 05:26:44;;;;;;;8.57;4.60;;;;;;;13.46;44.13;100565.00;5083764;28;20115;-69
2021/04/21 05:29:47;;;;;;;7.32;4.07;;;;;;;13.60;44.67;100565.06;5082238;28;20068;-69
2021/04/21 05:32:45;;;;;;;5.13;4.30;;;;;;;13.83;43.48;100568.97;5082897;28;20082;-68
2021/04/21 05:35:30;;;;;;;10.05;4.55;;;;;;;14.22;43.48;100566.69;5074987;28;20645;-69
2021/04/21 05:38:15;;;;;;;;;;;;;;;14.38;41.63;100575.31;5087581;28;20383;-69
2021/04/21 05:41:09;;;;;;;7.40;4.90;;;;;;;14.83;41.15;100581.34;5074951;28;19920;-69
2021/04/21 05:44:00;;;;;;;9.20;4.43;;;;;;;14.98;39.42;100579.56;5084813;28;20041;-69
2021/04/21 05:47:03;;;;;;;6.13;5.40;;;;;;;14.96;38.80;100574.38;5070918;28;20520;-69
2021/04/21 05:50:02;;;;;;;10.63;4.78;;;;;;;15.13;38.91;100583.84;5072485;28;20120;-69
2021/04/21 05:52:31;;;;;;;6.22;5.10;;;;;;;15.26;39.77;100584.75;5089880;28;20058;-69
2021/04/21 05:55:39;;;;;;;11.43;5.38;;;;;;;15.02;40.79;100587.16;5105056;28;20971;-69
2021/04/21 05:58:20;;;;;;;9.63;5.43;;;;;;;15.29;40.94;100589.81;5038315;28;20430;-67
2021/04/21 06:01:23;;;;;;;10.90;5.38;;;;;;;15.86;40.22;100594.00;5070990;28;20109;-66
2021/04/21 06:03:53;;;;;;;5.72;5.00;;;;;;;16.06;39.83;100590.88;5071784;28;20048;-67
2021/04/21 06:06:20;;;;;;;6.13;3.83;;;;;;;16.58;37.87;100592.59;5070255;28;20044;-68
2021/04/21 06:08:48;;;;;;;7.05;3.58;;;;;;;16.73;35.52;100586.28;5075104;28;20051;-68
2021/04/21 06:11:27;;;;;;;4.60;3.30;;;;;;;17.03;35.23;100593.78;5070435;28;20132;-68
2021/04/21 06:13:56;;;;;;;3.75;3.45;;;;;;;17.52;33.40;100594.66;5066805;28;20094;-67
2021/04/21 06:16:23;;;;;;;3.65;3.00;;;;;;;17.57;32.44;100600.44;5069719;28;20040;-67
2021/04/21 06:18:54;;;;;;;11.85;3.33;;;;;;;17.78;32.64;100601.53;5083053;28;20036;-67
2021/04/21 06:21:22;;;;;;;7.03;2.92;;;;;;;17.77;32.86;100605.13;5090341;28;20605;-68
2021/04/21 06:23:49;;;;;;;8.73;2.78;;;;;;;18.13;32.11;100605.13;5088367;28;20380;-67
2021/04/21 06:26:21;;;;;;;7.13;3.20;;;;;;;18.58;31.25;100606.00;5090015;28;20079;-67
2021/04/21 06:29:17;;;;;;;4.88;3.08;;;;;;;19.00;31.00;100604.47;5075947;28;20045;-67
2021/04/21 06:31:51;;;;;;;3.38;3.08;;;;;;;19.38;30.47;100605.84;5048780;28;20041;-68
2021/04/21 06:34:18;;;;;;;5.82;2.95;;;;;;;19.85;29.35;100606.44;5076500;28;20097;-69
2021/04/21 06:36:49;;;;;;;3.63;2.65;;;;;;;20.03;28.84;100604.06;5091075;28;20043;-70
2021/04/21 06:39:20;;;;;;;4.15;3.15;;;;;;;20.26;28.89;100605.59;5073407;28;20041;-69
2021/04/21 06:41:54;;;;;;;5.55;3.03;;;;;;;20.40;29.14;100602.63;5088060;28;20128;-69
2021/04/21 06:44:31;;;;;;;4.90;4.15;;;;;;;20.50;28.93;100602.69;5070774;28;20045;-70
2021/04/21 06:46:58;;;;;;;4.28;3.88;;;;;;;20.78;28.83;100603.81;5070206;28;20068;-71
2021/04/21 06:49:25;;;;;;;5.53;4.35;;;;;;;20.42;29.41;100605.97;5069809;28;20170;-70
2021/04/21 06:51:51;;;;;;;5.93;4.03;;;;;;;21.02;29.06;100605.28;5069725;28;20123;-70
2021/04/21 06:54:21;;;;;;;4.25;3.92;;;;;;;21.05;29.24;100605.84;5070414;28;20052;-69
2021/04/21 06:56:48;;;;;;;8.65;6.15;;;;;;;21.25;29.60;100606.72;5071274;28;20172;-68
2021/04/21 06:59:19;;;;;;;5.25;4.45;;;;;;;21.37;29.66;100605.66;5087132;28;20046;-70
2021/04/21 07:01:49;;;;;;;6.13;5.47;;;;;;;20.95;30.41;100609.44;5089833;28;20542;-70
2021/04/21 07:04:18;;;;;;;9.15;5.50;;;;;;;20.67;31.27;100612.69;5069890;28;20127;-70
2021/04/21 07:06:49;;;;;;;9.57;6.18;;;;;;;20.61;31.29;100607.06;5067099;28;20040;-69
2021/04/21 07:09:23;;;;;;;7.63;5.47;;;;;;;20.45;31.97;100606.66;5071033;28;21292;-69
2021/04/21 07:12:01;;;;;;;6.97;5.57;;;;;;;20.80;31.29;100622.22;5067046;28;20143;-70
2021/04/21 07:14:30;;;;;;;6.68;4.90;;;;;;;21.14;31.19;100614.78;5086153;28;20070;-69
2021/04/21 07:16:58;;;;;;;8.90;5.93;;;;;;;21.56;30.72;100625.22;5089046;28;20044;-70
2021/04/21 07:19:27;;;;;;;6.85;5.25;;;;;;;21.95;30.52;100621.59;5072702;28;20041;-69
2021/04/21 07:21:54;;;;;;;6.80;6.00;;;;;;;22.59;29.44;100613.97;5070949;28;20124;-69
2021/04/21 07:24:30;;;;;;;6.57;5.15;;;;;;;22.56;28.97;100619.56;5067861;28;20131;-70
2021/04/21 07:26:58;;;;;;;7.10;5.78;;;;;;;21.93;29.42;100628.84;5068564;28;20048;-69
2021/04/21 07:29:26;;;;;;;7.13;5.50;;;;;;;22.37;29.19;100620.44;5068055;28;20052;-68
2021/04/21 07:31:53;;;;;;;7.28;5.55;;;;;;;23.18;28.58;100620.72;5076374;28;20036;-68
2021/04/21 07:34:35;;;;;;;8.27;6.32;;;;;;;23.61;27.93;100616.50;5083054;28;20079;-67
2021/04/21 07:37:02;;;;;;;7.32;5.65;;;;;;;24.04;26.98;100619.22;5093222;28;20127;-68
2021/04/21 07:39:38;;;;;;;6.78;5.03;;;;;;;24.01;25.88;100624.84;5072389;28;20072;-73
2021/04/21 07:42:15;;;;;;;9.60;5.43;;;;;;;24.16;25.65;100629.63;5081799;28;20127;-74
2021/04/21 07:44:54;;;;;;;5.35;4.85;;;;;;;23.83;25.96;100632.03;5073630;28;20045;-71
2021/04/21 07:47:24;;;;;;;6.00;4.95;;;;;;;24.46;25.74;100629.22;5073965;28;20127;-73
2021/04/21 07:49:59;;;;;;;6.95;5.43;;;;;;;24.52;25.44;100628.59;5073910;28;20403;-71
2021/04/21 07:52:30;;;;;;;6.45;5.55;;;;;;;23.61;26.44;100633.31;5077547;28;20040;-75
2021/04/21 07:55:10;;;;;;;6.45;5.50;;;;;;;23.59;27.12;100635.25;5089007;28;20055;-73
2021/04/21 07:57:39;;;;;;;8.13;5.57;;;;;;;23.44;26.95;100632.31;5090031;28;20495;-76
2021/04/21 08:00:12;;;;;;;11.27;5.97;;;;;;;23.18;27.69;100632.19;5078238;28;20434;-72
2021/04/21 08:02:38;;;;;;;5.97;5.50;;;;;;;23.84;27.24;100635.53;5073305;28;20087;-76
2021/04/21 08:05:08;;;;;;;8.48;5.93;;;;;;;23.50;27.83;100631.69;5091888;28;20048;-76
2021/04/21 08:07:40;;;;;;;5.85;4.85;;;;;;;23.56;27.66;100634.75;5074516;28;20049;-76
2021/04/21 08:10:17;;;;;;;7.63;6.03;;;;;;;23.92;27.40;100644.44;5090127;28;20092;-75
2021/04/21 08:12:43;;;;;;;5.65;5.15;;;;;;;23.97;27.19;100644.81;5112933;28;20044;-76
2021/04/21 08:15:11;;;;;;;7.88;4.93;;;;;;;24.07;27.21;100649.19;5072510;28;20119;-78
2021/04/21 08:17:51;;;;;;;5.60;5.07;;;;;;;24.14;27.08;100648.44;5070421;28;20040;-76
2021/04/21 08:20:39;;;;;;;10.75;5.53;;;;;;;24.59;26.95;100641.28;5073635;28;20040;-74
2021/04/21 08:23:26;;;;;;;10.85;5.32;;;;;;;24.45;26.51;100640.88;5072179;28;20487;-76
2021/04/21 08:25:53;;;;;;;8.52;5.90;;;;;;;24.36;26.41;100641.81;5073080;28;20399;-75
2021/04/21 08:28:22;;;;;;;6.78;5.95;;;;;;;24.47;26.58;100644.19;5073742;28;20501;-74
2021/04/21 08:30:53;;;;;;;6.45;5.78;;;;;;;24.49;26.58;100636.88;5073918;28;20072;-77
2021/04/21 08:33:20;;;;;;;6.75;6.10;;;;;;;24.89;26.08;100640.78;5082400;28;20437;-79
2021/04/21 08:35:46;;;;;;;5.78;5.15;;;;;;;24.96;25.70;100641.78;5073419;28;20060;-79
2021/04/21 08:38:13;;;;;;;6.13;5.10;;;;;;;24.92;25.59;100643.09;5073782;28;20040;-77
2021/04/21 08:40:40;;;;;;;7.53;6.10;;;;;;;25.25;25.35;100648.63;5073008;28;20147;-77
2021/04/21 08:43:08;;;;;;;11.50;7.00;;;;;;;24.64;26.42;100644.31;5073074;28;20040;-77
2021/04/21 08:45:36;;;;;;;11.38;6.07;;;;;;;24.78;26.35;100644.56;5079762;28;20411;-78
2021/04/21 08:48:04;;;;;;;7.07;6.00;;;;;;;24.16;27.61;100650.94;5094216;28;20372;-78
2021/04/21 08:50:36;;;;;;;7.97;6.03;;;;;;;24.31;27.26;100650.22;5087461;28;20399;-75
2021/04/21 08:53:07;;;;;;;6.88;5.88;;;;;;;23.90;28.04;100653.56;5078995;28;20047;-76
2021/04/21 08:55:34;;;;;;;7.80;6.78;;;;;;;24.17;27.79;100644.63;5078325;28;20050;-76
2021/04/21 08:58:02;;;;;;;9.18;6.75;;;;;;;23.57;29.14;100647.88;5072250;28;20499;-76
2021/04/21 09:00:28;;;;;;;7.00;6.30;;;;;;;23.62;29.66;100644.78;5072206;28;20063;-75
2021/04/21 09:03:00;;;;;;;14.50;8.70;;;;;;;23.94;29.04;100650.44;5073528;28;20048;-77
2021/04/21 09:05:26;;;;;;;8.40;6.60;;;;;;;24.47;28.37;100643.38;5072586;28;20048;-77
2021/04/21 09:07:53;;;;;;;7.55;6.63;;;;;;;25.07;27.39;100648.69;5073249;28;20045;-75
2021/04/21 09:10:20;;;;;;;8.15;7.32;;;;;;;25.00;27.69;100645.81;5078606;28;20036;-79
2021/04/21 09:12:47;;;;;;;7.80;7.10;;;;;;;24.76;28.28;100640.34;5085009;28;20115;-75
2021/04/21 09:15:16;;;;;;;8.65;7.85;;;;;;;24.93;28.58;100644.78;5072211;28;20072;-77
2021/04/21 09:17:47;;;;;;;10.23;6.95;;;;;;;24.70;28.64;100638.31;5071775;28;20498;-72
2021/04/21 09:20:19;;;;;;;7.85;7.15;;;;;;;24.71;28.77;100642.66;5072547;28;20131;-74
2021/04/21 09:22:57;;;;;;;7.95;7.15;;;;;;;23.22;30.24;100648.66;5074984;28;20044;-72
2021/04/21 09:25:24;;;;;;;6.30;5.70;;;;;;;23.48;29.23;100643.47;5079194;28;20119;-72
2021/04/21 09:27:54;;;;;;;9.20;6.03;;;;;;;22.81;29.33;100634.00;5071612;28;20040;-72
2021/04/21 09:30:22;;;;;;;6.30;5.25;;;;;;;22.38;30.18;100641.56;5072249;28;20562;-72
2021/04/21 09:32:52;;;;;;;7.97;5.68;;;;;;;22.49;29.26;100649.34;5072261;28;20068;-72
2021/04/21 09:35:23;;;;;;;7.85;5.57;;;;;;;22.02;29.55;100644.94;5071396;28;20036;-72
2021/04/21 09:38:11;;;;;;;7.10;6.40;;;;;;;22.15;30.27;100642.84;5071501;28;20491;-72
2021/04/21 09:40:38;;;;;;;5.95;5.35;;;;;;;22.08;30.46;100642.53;5072697;28;20582;-72
2021/04/21 09:43:06;;;;;;;6.72;5.68;;;;;;;22.41;30.45;100638.59;5071357;28;20040;-74
2021/04/21 09:45:34;;;;;;;8.60;6.93;;;;;;;22.47;30.79;100646.00;5072350;28;20048;-79
2021/04/21 09:48:23;;;;;;;7.45;6.25;;;;;;;21.85;31.30;100642.00;5074668;28;20131;-74
2021/04/21 09:51:10;;;;;;;6.30;5.80;;;;;;;21.68;30.93;100642.69;5072170;28;20067;-80
2021/04/21 09:53:42;;;;;;;8.65;7.35;;;;;;;21.56;31.67;100644.63;5081570;28;20060;-74
2021/04/21 09:56:23;;;;;;;10.18;7.18;;;;;;;21.43;32.24;100644.91;5072575;28;20048;-71
2021/04/21 09:58:55;;;;;;;7.70;6.78;;;;;;;20.54;33.42;100643.00;5071603;28;20127;-72
2021/04/21 10:01:28;;;;;;;7.30;6.60;;;;;;;20.09;33.72;100635.31;5071656;28;20106;-71
2021/04/21 10:04:25;;;;;;;10.00;7.13;;;;;;;20.05;34.85;100636.53;5071876;28;20376;-72
2021/04/21 10:06:57;;;;;;;7.80;7.07;;;;;;;20.16;33.92;100639.09;5071868;28;20080;-72
2021/04/21 10:09:31;;;;;;;12.70;8.75;;;;;;;19.73;34.90;100637.38;5071322;28;20041;-71
2021/04/21 10:12:19;;;;;;;14.80;10.63;;;;;;;19.61;35.21;100638.41;5072783;28;20036;-73
2021/04/21 10:15:02;;;;;;;9.60;7.82;;;;;;;20.11;34.75;100636.84;5069348;28;20485;-72
2021/04/21 10:17:35;;;;;;;8.57;7.45;;;;;;;20.45;34.63;100636.63;5078368;28;20039;-72
2021/04/21 10:20:05;;;;;;;9.73;8.85;;;;;;;20.67;34.47;100638.34;5080754;28;20036;-78
2021/04/21 10:22:31;;;;;;;11.27;9.77;;;;;;;20.62;33.89;100635.25;5072012;28;20048;-73
2021/04/21 10:24:59;;;;;;;10.32;9.23;;;;;;;20.71;34.35;100639.72;5084409;28;20040;-72
2021/04/21 10:27:27;;;;;;;12.98;9.27;;;;;;;20.88;34.39;100628.53;5072811;28;20060;-71
2021/04/21 10:29:54;;;;;;;10.82;9.82;;;;;;;20.83;34.90;100632.56;5072074;28;20055;-79
2021/04/21 10:32:21;;;;;;;11.60;9.90;;;;;;;21.14;34.33;100626.22;5071711;28;20067;-80
2021/04/21 10:34:48;;;;;;;13.27;11.88;;;;;;;20.97;34.81;100628.69;5070853;28;20127;-69
2021/04/21 10:37:16;;;;;;;12.10;10.88;;;;;;;20.87;35.15;100626.00;5069712;28;20123;-71
2021/04/21 10:39:53;;;;;;;12.30;10.23;;;;;;;20.81;34.68;100614.13;5071480;28;20102;-73
2021/04/21 10:42:20;;;;;;;14.55;11.32;;;;;;;20.56;35.22;100615.44;5070290;28;20044;-69
2021/04/21 10:44:48;;;;;;;14.27;12.85;;;;;;;20.71;35.33;100613.25;5071028;28;20123;-70
2021/04/21 10:47:21;;;;;;;13.20;11.95;;;;;;;20.55;35.61;100615.53;5069686;28;20037;-69
2021/04/21 10:50:00;;;;;;;13.27;10.38;;;;;;;20.38;35.17;100601.06;5078736;28;20069;-69
2021/04/21 10:52:27;;;;;;;12.18;10.85;;;;;;;20.50;34.76;100601.84;5091148;28;20036;-70
2021/04/21 10:55:10;;;;;;;15.38;11.82;;;;;;;20.05;35.97;100605.59;5083562;28;20453;-71
2021/04/21 10:57:59;;;;;;;14.38;12.38;;;;;;;20.04;36.47;100597.81;5070425;28;20123;-70
2021/04/21 11:00:26;;;;;;;13.68;11.63;;;;;;;20.02;35.84;100605.00;5069776;28;20072;-71
2021/04/21 11:03:08;;;;;;;13.50;11.95;;;;;;;19.53;37.70;100603.75;5079876;28;20075;-67
2021/04/21 11:05:40;;;;;;;13.85;12.55;;;;;;;18.70;38.39;100607.75;5074979;28;20064;-69
2021/04/21 11:08:09;;;;;;;16.73;12.27;;;;;;;19.19;39.46;100605.66;5070918;28;20111;-69
2021/04/21 11:10:50;;;;;;;13.98;12.68;;;;;;;19.50;38.65;100598.75;5068583;28;20047;-68
2021/04/21 11:13:37;;;;;;;15.48;12.30;;;;;;;19.56;37.39;100599.06;5071053;28;20097;-70
2021/04/21 11:16:06;;;;;;;15.80;11.85;;;;;;;19.41;40.70;100602.13;5072707;28;20044;-69
2021/04/21 11:18:34;;;;;;;16.77;14.90;;;;;;;19.45;39.67;100600.91;5091381;28;20105;-69
2021/04/21 11:21:03;;;;;;;16.63;15.02;;;;;;;18.85;38.78;100592.47;5089972;28;20406;-69
2021/04/21 11:23:55;;;;;;;16.55;14.80;;;;;;;18.84;39.86;100591.63;5081569;28;20059;-68
2021/04/21 11:26:30;;;;;;;14.55;12.30;;;;;;;18.85;39.66;100589.84;5086707;28;20044;-72
2021/04/21 11:28:59;;;;;;;13.82;11.95;;;;;;;18.38;39.08;100589.09;5084125;28;20036;-70
2021/04/21 11:31:40;;;;;;;21.23;13.10;;;;;;;18.73;38.85;100583.72;5083357;28;20055;-71
2021/04/21 11:34:13;;;;;;;16.00;12.30;;;;;;;19.44;37.93;100583.34;5090960;28;20047;-71
2021/04/21 11:37:01;;;;;;;13.73;11.93;;;;;;;19.81;36.71;100575.91;5088218;28;20051;-70
2021/04/21 11:43:39;;;;;;;14.23;12.83;;;;;;;20.13;35.01;100567.91;5085837;28;20139;-63
2021/04/21 11:46:05;;;;;;;14.65;13.13;;;;;;;20.21;35.68;100576.03;5077605;28;20853;-63
2021/04/21 11:48:38;;;;;;;14.15;12.80;;;;;;;20.21;35.21;100573.38;5071449;28;20133;-61
2021/04/21 11:51:16;;;;;;;14.02;12.10;;;;;;;20.06;34.82;100569.41;5085786;28;20069;-62
2021/04/21 11:53:43;;;;;;;14.70;12.80;;;;;;;20.30;34.58;100575.25;5076451;28;20051;-62
2021/04/21 11:56:12;;;;;;;14.57;11.55;;;;;;;20.21;33.99;100577.84;5078259;28;20123;-62
2021/04/21 11:58:40;;;;;;;21.20;18.05;;;;;;;20.06;33.86;100569.41;5075614;28;20064;-62